createdAt,value
2022-07-25T00:00:07.562Z,24.90
2022-07-25T00:02:11.273Z,24.80
2022-07-25T00:04:16.493Z,24.80
2022-07-25T00:06:19.637Z,24.80
2022-07-25T00:08:23.706Z,24.80
2022-07-25T00:10:26.733Z,24.70
2022-07-25T00:12:29.583Z,24.70
2022-07-25T00:14:32.331Z,24.70
2022-07-25T00:16:35.752Z,24.70
2022-07-25T00:18:38.646Z,24.70
2022-07-25T00:20:41.361Z,24.60
2022-07-25T00:22:44.157Z,24.70
2022-07-25T00:24:48.257Z,24.60
2022-07-25T00:26:50.986Z,24.60
2022-07-25T00:28:53.724Z,24.60
2022-07-25T00:30:56.662Z,24.60
2022-07-25T00:32:59.492Z,24.50
2022-07-25T00:35:02.268Z,24.40
2022-07-25T00:37:05.087Z,24.40
2022-07-25T00:39:07.866Z,24.40
2022-07-25T00:41:11.981Z,24.40
2022-07-25T00:43:14.769Z,24.40
2022-07-25T00:45:17.565Z,24.40
2022-07-25T00:47:20.374Z,24.40
2022-07-25T00:49:23.702Z,24.30
2022-07-25T00:51:27.021Z,24.30
2022-07-25T00:53:29.964Z,24.20
2022-07-25T00:55:34.600Z,24.20
2022-07-25T00:57:38.790Z,24.20
2022-07-25T00:59:41.564Z,24.20
2022-07-25T01:01:45.632Z,24.20
2022-07-25T01:03:48.463Z,24.30
2022-07-25T01:05:53.924Z,24.20
2022-07-25T01:07:58.201Z,24.30
2022-07-25T01:10:01.303Z,24.20
2022-07-25T01:12:04.300Z,24.20
2022-07-25T01:14:09.896Z,24.30
2022-07-25T01:16:12.793Z,24.30
2022-07-25T01:18:15.614Z,24.20
2022-07-25T01:20:20.239Z,24.10
2022-07-25T01:22:23.256Z,24.10
2022-07-25T01:24:26.020Z,24.10
2022-07-25T01:26:28.746Z,24.10
2022-07-25T01:28:32.063Z,24.10
2022-07-25T01:30:35.042Z,24.00
2022-07-25T01:32:38.240Z,24.00
2022-07-25T01:34:41.008Z,24.00
2022-07-25T01:36:45.102Z,23.90
2022-07-25T01:38:47.843Z,23.90
2022-07-25T01:40:50.584Z,24.00
2022-07-25T01:42:53.387Z,24.00
2022-07-25T01:44:56.576Z,23.90
2022-07-25T01:46:59.304Z,23.90
2022-07-25T01:49:02.164Z,23.90
2022-07-25T01:51:05.463Z,23.90
2022-07-25T01:53:09.554Z,23.80
2022-07-25T01:55:12.351Z,23.80
2022-07-25T01:57:15.235Z,23.80
2022-07-25T01:59:19.613Z,23.70
2022-07-25T02:01:22.683Z,23.70
2022-07-25T02:03:31.656Z,23.80
2022-07-25T02:05:34.406Z,23.80
2022-07-25T02:07:37.307Z,23.80
2022-07-25T02:09:41.395Z,23.70
2022-07-25T02:11:44.157Z,23.60
2022-07-25T02:13:46.923Z,23.60
2022-07-25T02:15:50.108Z,23.60
2022-07-25T02:17:52.846Z,23.50
2022-07-25T02:19:55.624Z,23.60
2022-07-25T02:21:58.342Z,23.60
2022-07-25T02:24:01.150Z,23.60
2022-07-25T02:26:05.680Z,23.50
2022-07-25T02:28:10.484Z,23.60
2022-07-25T02:30:14.220Z,23.50
2022-07-25T02:32:17.035Z,23.50
2022-07-25T02:34:19.927Z,23.40
2022-07-25T02:36:22.699Z,23.40
2022-07-25T02:38:26.307Z,23.40
2022-07-25T02:40:29.248Z,23.40
2022-07-25T02:42:33.371Z,23.40
2022-07-25T02:44:36.096Z,23.40
2022-07-25T02:46:38.817Z,23.40
2022-07-25T02:48:41.606Z,23.40
2022-07-25T02:50:44.524Z,23.30
2022-07-25T02:52:47.245Z,23.30
2022-07-25T02:54:50.725Z,23.30
2022-07-25T02:56:53.446Z,23.20
2022-07-25T02:58:57.550Z,23.20
2022-07-25T03:01:02.893Z,23.10
2022-07-25T03:03:05.776Z,23.10
2022-07-25T03:05:10.256Z,23.10
2022-07-25T03:07:12.996Z,23.10
2022-07-25T03:09:15.790Z,23.10
2022-07-25T03:11:18.646Z,23.10
2022-07-25T03:13:21.621Z,23.10
2022-07-25T03:15:25.730Z,23.00
2022-07-25T03:17:28.587Z,22.90
2022-07-25T03:19:31.361Z,22.90
2022-07-25T03:21:34.095Z,22.90
2022-07-25T03:23:38.624Z,22.90
2022-07-25T03:25:41.404Z,22.80
2022-07-25T03:27:44.155Z,22.80
2022-07-25T03:29:46.980Z,22.90
2022-07-25T03:31:51.178Z,22.80
2022-07-25T03:33:54.002Z,22.80
2022-07-25T03:35:57.441Z,22.70
2022-07-25T03:38:00.241Z,22.60
2022-07-25T03:40:03.018Z,22.70
2022-07-25T03:42:05.808Z,22.70
2022-07-25T03:44:09.448Z,22.70
2022-07-25T03:46:12.972Z,22.70
2022-07-25T03:48:17.096Z,22.70
2022-07-25T03:50:20.042Z,22.70
2022-07-25T03:52:22.767Z,22.60
2022-07-25T03:54:25.504Z,22.60
2022-07-25T03:56:28.425Z,22.50
2022-07-25T03:58:31.169Z,22.60
2022-07-25T04:00:33.974Z,22.70
2022-07-25T04:02:37.551Z,22.60
2022-07-25T04:04:42.116Z,22.70
2022-07-25T04:06:45.491Z,22.60
2022-07-25T04:08:48.297Z,22.60
2022-07-25T04:10:51.016Z,22.60
2022-07-25T04:12:53.754Z,22.60
2022-07-25T04:14:56.515Z,22.70
2022-07-25T04:16:59.400Z,22.70
2022-07-25T04:19:02.830Z,22.70
2022-07-25T04:21:09.990Z,22.70
2022-07-25T04:23:12.702Z,22.70
2022-07-25T04:25:15.566Z,22.70
2022-07-25T04:27:18.462Z,22.70
2022-07-25T04:29:21.268Z,22.80
2022-07-25T04:31:24.136Z,22.80
2022-07-25T04:33:26.934Z,22.90
2022-07-25T04:35:29.683Z,22.90
2022-07-25T04:37:36.030Z,22.90
2022-07-25T04:39:38.860Z,23.00
2022-07-25T04:41:41.571Z,23.00
2022-07-25T04:43:48.559Z,23.10
2022-07-25T04:45:51.814Z,23.10
2022-07-25T04:47:54.613Z,23.20
2022-07-25T04:49:57.416Z,23.20
2022-07-25T04:52:00.150Z,23.30
2022-07-25T04:54:04.906Z,23.40
2022-07-25T04:56:08.280Z,23.40
2022-07-25T04:58:11.011Z,23.50
2022-07-25T05:00:15.297Z,23.60
2022-07-25T05:02:19.294Z,23.70
2022-07-25T05:04:22.507Z,23.70
2022-07-25T05:06:25.381Z,23.80
2022-07-25T05:08:28.147Z,23.80
2022-07-25T05:10:32.304Z,23.90
2022-07-25T05:12:35.072Z,24.00
2022-07-25T05:14:38.422Z,24.00
2022-07-25T05:16:41.248Z,24.00
2022-07-25T05:18:44.068Z,24.10
2022-07-25T05:20:47.038Z,24.10
2022-07-25T05:22:49.790Z,24.20
2022-07-25T05:24:52.566Z,24.30
2022-07-25T05:26:56.627Z,24.30
2022-07-25T05:28:59.943Z,24.40
2022-07-25T05:31:02.725Z,24.50
2022-07-25T05:33:05.514Z,24.50
2022-07-25T05:35:09.845Z,24.60
2022-07-25T05:37:12.872Z,24.70
2022-07-25T05:39:15.827Z,24.80
2022-07-25T05:41:18.551Z,24.90
2022-07-25T05:43:22.643Z,25.00
2022-07-25T05:45:25.571Z,25.10
2022-07-25T05:47:28.381Z,25.20
2022-07-25T05:49:31.194Z,25.30
2022-07-25T05:51:34.036Z,25.40
2022-07-25T05:53:37.531Z,25.40
2022-07-25T05:55:41.035Z,25.50
2022-07-25T05:57:44.045Z,25.60
2022-07-25T05:59:48.389Z,25.70
2022-07-25T06:01:51.348Z,25.70
2022-07-25T06:03:54.158Z,25.90
2022-07-25T06:05:57.247Z,25.90
2022-07-25T06:07:59.991Z,26.00
2022-07-25T06:10:03.398Z,26.10
2022-07-25T06:12:07.150Z,26.20
2022-07-25T06:14:11.096Z,26.30
2022-07-25T06:16:15.247Z,26.30
2022-07-25T06:18:18.044Z,26.40
2022-07-25T06:20:21.033Z,26.40
2022-07-25T06:22:23.778Z,26.50
2022-07-25T06:24:26.572Z,26.60
2022-07-25T06:26:29.439Z,26.70
2022-07-25T06:28:32.343Z,26.80
2022-07-25T06:30:35.058Z,26.80
2022-07-25T06:32:39.278Z,26.90
2022-07-25T06:34:42.068Z,26.90
2022-07-25T06:36:44.867Z,27.00
2022-07-25T06:38:47.607Z,27.10
2022-07-25T06:40:50.320Z,27.10
2022-07-25T06:42:53.519Z,27.20
2022-07-25T06:44:56.269Z,27.30
2022-07-25T06:46:59.082Z,27.30
2022-07-25T06:49:03.306Z,27.40
2022-07-25T06:51:07.213Z,27.50
2022-07-25T06:53:10.114Z,27.60
2022-07-25T06:55:14.768Z,27.70
2022-07-25T06:57:17.514Z,27.80
2022-07-25T06:59:20.541Z,27.80
2022-07-25T07:01:23.327Z,28.00
2022-07-25T07:03:26.139Z,28.10
2022-07-25T07:05:32.123Z,28.20
2022-07-25T07:07:34.899Z,28.30
2022-07-25T07:09:39.678Z,28.40
2022-07-25T07:11:42.444Z,28.50
2022-07-25T07:13:45.153Z,28.50
2022-07-25T07:15:50.283Z,28.60
2022-07-25T07:17:53.312Z,28.70
2022-07-25T07:19:56.123Z,28.80
2022-07-25T07:22:00.339Z,28.90
2022-07-25T07:24:03.183Z,29.10
2022-07-25T07:26:15.460Z,29.20
2022-07-25T07:28:18.345Z,29.30
2022-07-25T07:30:24.781Z,29.40
2022-07-25T07:32:29.972Z,29.40
2022-07-25T07:34:32.868Z,29.50
2022-07-25T07:36:35.588Z,29.60
2022-07-25T07:38:39.986Z,29.70
2022-07-25T07:40:42.765Z,29.80
2022-07-25T07:42:49.356Z,29.90
2022-07-25T07:44:52.131Z,30.00
2022-07-25T07:46:55.026Z,30.10
2022-07-25T07:48:57.951Z,30.20
2022-07-25T07:51:02.054Z,30.30
2022-07-25T07:53:05.194Z,30.40
2022-07-25T07:55:28.286Z,30.50
2022-07-25T07:57:30.995Z,30.60
2022-07-25T07:59:33.933Z,30.60
2022-07-25T08:01:36.780Z,30.70
2022-07-25T08:03:39.670Z,30.80
2022-07-25T08:05:44.544Z,30.90
2022-07-25T08:07:47.390Z,31.00
2022-07-25T08:09:50.109Z,31.10
2022-07-25T08:11:54.271Z,31.20
2022-07-25T08:13:57.047Z,31.30
2022-07-25T08:16:03.259Z,31.30
2022-07-25T08:18:06.614Z,31.40
2022-07-25T08:20:37.568Z,31.60
2022-07-25T08:22:43.060Z,31.60
2022-07-25T08:24:45.898Z,31.70
2022-07-25T08:26:48.707Z,31.70
2022-07-25T08:29:10.844Z,31.80
2022-07-25T08:31:15.626Z,31.90
2022-07-25T08:33:18.735Z,32.00
2022-07-25T08:35:22.898Z,32.10
2022-07-25T08:37:25.958Z,32.30
2022-07-25T08:39:28.787Z,32.30
2022-07-25T08:41:33.743Z,32.30
2022-07-25T08:43:37.777Z,32.40
2022-07-25T08:45:45.640Z,32.50
2022-07-25T08:47:50.848Z,32.50
2022-07-25T08:49:54.967Z,32.70
2022-07-25T08:51:58.180Z,32.80
2022-07-25T08:54:01.836Z,32.80
2022-07-25T08:56:11.574Z,32.90
2022-07-25T08:58:17.653Z,33.10
2022-07-25T09:00:23.329Z,33.10
2022-07-25T09:02:28.763Z,33.20
2022-07-25T09:04:33.981Z,33.20
2022-07-25T09:06:37.510Z,33.30
2022-07-25T09:08:50.779Z,33.20
2022-07-25T09:10:54.705Z,33.20
2022-07-25T09:12:59.661Z,33.30
2022-07-25T09:15:02.376Z,33.40
2022-07-25T09:17:07.820Z,33.50
2022-07-25T09:19:27.244Z,33.50
2022-07-25T09:21:29.998Z,33.60
2022-07-25T09:23:34.612Z,33.70
2022-07-25T09:25:38.319Z,33.80
2022-07-25T09:27:41.533Z,33.90
2022-07-25T09:29:45.029Z,33.90
2022-07-25T09:31:48.290Z,34.00
2022-07-25T09:33:56.273Z,34.10
2022-07-25T09:36:00.379Z,34.10
2022-07-25T09:38:13.745Z,34.10
2022-07-25T09:40:16.668Z,34.20
2022-07-25T09:42:25.422Z,34.20
2022-07-25T09:44:30.326Z,34.30
2022-07-25T09:46:33.961Z,34.40
2022-07-25T09:48:38.175Z,34.50
2022-07-25T09:50:41.014Z,34.60
2022-07-25T09:52:45.789Z,34.60
2022-07-25T09:54:48.626Z,34.60
2022-07-25T09:56:51.518Z,34.60
2022-07-25T09:58:54.259Z,34.60
2022-07-25T10:01:01.830Z,34.70
2022-07-25T10:03:18.743Z,34.80
2022-07-25T10:05:32.316Z,34.80
2022-07-25T10:07:38.690Z,34.80
2022-07-25T10:09:45.576Z,35.00
2022-07-25T10:12:06.832Z,35.00
2022-07-25T10:14:13.768Z,35.00
2022-07-25T10:16:18.467Z,35.10
2022-07-25T10:18:23.298Z,35.10
2022-07-25T10:20:29.289Z,35.20
2022-07-25T10:22:55.719Z,35.30
2022-07-25T10:25:11.740Z,35.20
2022-07-25T10:27:15.827Z,35.20
2022-07-25T10:29:23.126Z,35.30
2022-07-25T10:31:29.141Z,35.40
2022-07-25T10:33:42.692Z,35.40
2022-07-25T10:35:46.076Z,35.60
2022-07-25T10:37:52.049Z,35.60
2022-07-25T10:39:56.486Z,35.70
2022-07-25T10:42:02.696Z,35.90
2022-07-25T10:44:06.239Z,36.00
2022-07-25T10:46:14.165Z,36.00
2022-07-25T10:48:22.913Z,36.00
2022-07-25T10:50:53.374Z,36.10
2022-07-25T10:52:59.421Z,36.10
2022-07-25T10:55:02.827Z,36.20
2022-07-25T10:57:15.894Z,36.00
2022-07-25T10:59:28.027Z,36.10
2022-07-25T11:01:34.526Z,36.20
2022-07-25T11:03:37.324Z,36.10
2022-07-25T11:05:46.587Z,36.20
2022-07-25T11:08:18.888Z,36.20
2022-07-25T11:10:15.363Z,36.30
2022-07-25T11:12:19.540Z,36.30
2022-07-25T11:14:23.475Z,36.30
2022-07-25T11:16:28.191Z,36.30
2022-07-25T11:18:36.476Z,36.30
2022-07-25T11:20:39.270Z,36.20
2022-07-25T11:22:41.994Z,36.30
2022-07-25T11:24:46.962Z,36.40
2022-07-25T11:26:51.176Z,36.40
2022-07-25T11:28:55.241Z,36.50
2022-07-25T11:31:04.691Z,36.50
2022-07-25T11:33:07.429Z,36.60
2022-07-25T11:35:11.746Z,36.60
2022-07-25T11:37:15.840Z,36.50
2022-07-25T11:39:19.819Z,36.60
2022-07-25T11:41:30.500Z,36.70
2022-07-25T11:43:33.979Z,36.80
2022-07-25T11:45:39.873Z,36.70
2022-07-25T11:47:42.934Z,36.80
2022-07-25T11:49:47.349Z,36.80
2022-07-25T11:51:50.216Z,36.90
2022-07-25T11:53:53.007Z,36.90
2022-07-25T11:55:55.743Z,37.10
2022-07-25T11:58:00.700Z,37.10
2022-07-25T12:00:09.134Z,37.20
2022-07-25T12:02:22.729Z,37.20
2022-07-25T12:04:25.579Z,37.30
2022-07-25T12:06:30.446Z,37.20
2022-07-25T12:08:39.449Z,37.10
2022-07-25T12:10:43.694Z,37.10
2022-07-25T12:12:49.616Z,37.00
2022-07-25T12:14:52.426Z,37.00
2022-07-25T12:16:55.210Z,37.10
2022-07-25T12:18:59.517Z,37.10
2022-07-25T12:21:02.451Z,37.20
2022-07-25T12:23:06.910Z,37.30
2022-07-25T12:25:10.759Z,37.40
2022-07-25T12:27:13.567Z,37.40
2022-07-25T12:29:16.324Z,37.40
2022-07-25T12:31:19.398Z,37.50
2022-07-25T12:33:22.278Z,37.40
2022-07-25T12:35:27.179Z,37.40
2022-07-25T12:37:30.016Z,37.30
2022-07-25T12:39:33.602Z,36.90
2022-07-25T12:41:36.381Z,37.10
2022-07-25T12:43:39.109Z,37.20
2022-07-25T12:45:42.603Z,37.40
2022-07-25T12:47:46.179Z,37.50
2022-07-25T12:49:49.071Z,37.50
2022-07-25T12:51:57.945Z,37.60
2022-07-25T12:54:01.008Z,37.70
2022-07-25T12:56:03.775Z,37.60
2022-07-25T12:58:06.738Z,37.70
2022-07-25T13:00:12.866Z,37.60
2022-07-25T13:02:15.762Z,37.70
2022-07-25T13:04:18.619Z,37.60
2022-07-25T13:06:21.379Z,37.50
2022-07-25T13:08:25.601Z,37.40
2022-07-25T13:10:28.324Z,37.00
2022-07-25T13:12:31.269Z,37.00
2022-07-25T13:14:34.043Z,37.10
2022-07-25T13:16:37.997Z,37.20
2022-07-25T13:18:40.943Z,37.40
2022-07-25T13:20:43.663Z,37.60
2022-07-25T13:22:46.414Z,37.40
2022-07-25T13:24:50.448Z,37.70
2022-07-25T13:26:53.223Z,37.80
2022-07-25T13:28:59.775Z,37.80
2022-07-25T13:31:05.780Z,37.90
2022-07-25T13:33:10.009Z,37.70
2022-07-25T13:35:15.367Z,37.60
2022-07-25T13:37:20.627Z,37.50
2022-07-25T13:39:23.444Z,37.20
2022-07-25T13:41:27.799Z,37.40
2022-07-25T13:43:30.510Z,37.40
2022-07-25T13:45:33.289Z,37.30
2022-07-25T13:47:36.445Z,37.30
2022-07-25T13:49:39.216Z,37.20
2022-07-25T13:51:41.928Z,37.10
2022-07-25T13:53:45.764Z,37.00
2022-07-25T13:55:48.479Z,36.90
2022-07-25T13:57:52.553Z,36.80
2022-07-25T13:59:55.309Z,36.70
2022-07-25T14:01:58.145Z,36.50
2022-07-25T14:04:00.908Z,36.30
2022-07-25T14:06:03.968Z,36.20
2022-07-25T14:08:07.288Z,36.00
2022-07-25T14:10:11.070Z,35.90
2022-07-25T14:12:13.800Z,35.80
2022-07-25T14:14:18.460Z,35.50
2022-07-25T14:16:21.200Z,35.30
2022-07-25T14:18:23.934Z,34.90
2022-07-25T14:20:27.141Z,34.60
2022-07-25T14:22:30.647Z,34.30
2022-07-25T14:24:33.588Z,33.60
2022-07-25T14:26:36.427Z,32.50
2022-07-25T14:28:39.197Z,32.60
2022-07-25T14:30:43.289Z,31.90
2022-07-25T14:32:47.000Z,31.80
2022-07-25T14:34:50.902Z,31.50
2022-07-25T14:36:53.628Z,31.00
2022-07-25T14:38:57.547Z,30.60
2022-07-25T14:41:02.016Z,30.50
2022-07-25T14:43:04.806Z,30.50
2022-07-25T14:45:08.452Z,30.40
2022-07-25T14:47:12.958Z,30.30
2022-07-25T14:49:16.602Z,29.90
2022-07-25T14:51:20.028Z,30.10
2022-07-25T14:53:22.848Z,30.10
2022-07-25T14:55:25.803Z,30.10
2022-07-25T14:57:28.719Z,30.30
2022-07-25T14:59:31.458Z,30.60
2022-07-25T15:01:34.346Z,30.60
2022-07-25T15:03:39.796Z,30.80
2022-07-25T15:05:42.952Z,30.90
2022-07-25T15:07:45.934Z,31.00
2022-07-25T15:09:48.742Z,31.00
2022-07-25T15:11:51.456Z,30.80
2022-07-25T15:13:54.294Z,30.80
2022-07-25T15:15:57.897Z,30.90
2022-07-25T15:18:01.404Z,31.10
2022-07-25T15:20:06.464Z,31.30
2022-07-25T15:22:09.279Z,31.50
2022-07-25T15:24:12.175Z,31.70
2022-07-25T15:26:15.039Z,31.90
2022-07-25T15:28:17.783Z,32.10
2022-07-25T15:30:21.349Z,32.10
2022-07-25T15:32:26.444Z,32.20
2022-07-25T15:34:29.268Z,32.30
2022-07-25T15:36:33.471Z,32.30
2022-07-25T15:38:36.782Z,32.40
2022-07-25T15:40:39.913Z,32.40
2022-07-25T15:42:44.072Z,32.30
2022-07-25T15:44:47.473Z,32.40
2022-07-25T15:46:50.276Z,32.30
2022-07-25T15:48:53.445Z,32.30
2022-07-25T15:50:58.715Z,32.20
2022-07-25T15:53:03.006Z,32.10
2022-07-25T15:55:06.654Z,32.10
2022-07-25T15:57:09.782Z,32.10
2022-07-25T15:59:12.591Z,32.00
2022-07-25T16:01:15.710Z,32.10
2022-07-25T16:03:18.509Z,32.00
2022-07-25T16:05:22.050Z,32.10
2022-07-25T16:07:24.847Z,32.10
2022-07-25T16:09:29.031Z,32.20
2022-07-25T16:11:31.958Z,32.30
2022-07-25T16:13:34.765Z,32.60
2022-07-25T16:15:37.693Z,33.00
2022-07-25T16:17:40.418Z,34.20
2022-07-25T16:19:43.841Z,35.50
2022-07-25T16:21:46.540Z,36.70
2022-07-25T16:23:49.362Z,37.70
2022-07-25T16:25:53.832Z,38.00
2022-07-25T16:27:57.156Z,38.30
2022-07-25T16:29:59.978Z,38.90
2022-07-25T16:32:02.823Z,39.60
2022-07-25T16:34:05.759Z,40.30
2022-07-25T16:36:09.640Z,40.90
2022-07-25T16:38:17.718Z,41.30
2022-07-25T16:40:20.758Z,41.70
2022-07-25T16:42:25.485Z,42.30
2022-07-25T16:44:28.241Z,42.70
2022-07-25T16:46:31.014Z,42.80
2022-07-25T16:48:34.018Z,42.90
2022-07-25T16:50:36.859Z,43.10
2022-07-25T16:52:39.695Z,43.30
2022-07-25T16:54:42.488Z,43.30
2022-07-25T16:56:50.115Z,43.40
2022-07-25T16:58:56.916Z,43.40
2022-07-25T17:00:59.657Z,43.20
2022-07-25T17:03:02.414Z,43.00
2022-07-25T17:05:05.825Z,42.60
2022-07-25T17:07:08.888Z,41.50
2022-07-25T17:09:11.741Z,41.20
2022-07-25T17:11:14.567Z,40.80
2022-07-25T17:13:17.369Z,40.20
2022-07-25T17:15:21.603Z,39.50
2022-07-25T17:17:24.341Z,38.80
2022-07-25T17:19:27.106Z,38.20
2022-07-25T17:21:29.939Z,37.60
2022-07-25T17:23:32.918Z,37.00
2022-07-25T17:25:35.812Z,36.60
2022-07-25T17:27:38.541Z,36.10
2022-07-25T17:29:41.406Z,35.80
2022-07-25T17:31:45.646Z,35.40
2022-07-25T17:33:48.418Z,35.10
2022-07-25T17:35:52.209Z,34.90
2022-07-25T17:37:55.288Z,34.70
2022-07-25T17:39:59.764Z,34.50
2022-07-25T17:42:07.079Z,34.30
2022-07-25T17:44:12.059Z,34.30
2022-07-25T17:46:15.256Z,34.20
2022-07-25T17:48:19.388Z,34.10
2022-07-25T17:50:28.583Z,34.00
2022-07-25T17:52:31.916Z,33.60
2022-07-25T17:54:34.982Z,33.50
2022-07-25T17:56:38.602Z,33.20
2022-07-25T17:58:41.601Z,32.90
2022-07-25T18:00:44.710Z,32.20
2022-07-25T18:02:47.981Z,31.60
2022-07-25T18:04:52.191Z,31.80
2022-07-25T18:06:55.548Z,30.90
2022-07-25T18:08:58.369Z,30.60
2022-07-25T18:11:01.763Z,29.60
2022-07-25T18:13:04.638Z,29.70
2022-07-25T18:15:08.707Z,29.90
2022-07-25T18:17:11.981Z,29.60
2022-07-25T18:19:14.824Z,29.50
2022-07-25T18:21:18.887Z,29.40
2022-07-25T18:23:21.794Z,29.30
2022-07-25T18:25:24.688Z,29.10
2022-07-25T18:27:27.571Z,29.10
2022-07-25T18:29:32.422Z,28.90
2022-07-25T18:31:38.225Z,28.80
2022-07-25T18:33:41.101Z,28.90
2022-07-25T18:35:44.270Z,28.90
2022-07-25T18:37:48.382Z,28.90
2022-07-25T18:39:51.158Z,28.80
2022-07-25T18:41:53.884Z,28.60
2022-07-25T18:43:56.701Z,28.60
2022-07-25T18:46:01.008Z,28.40
2022-07-25T18:48:05.900Z,28.50
2022-07-25T18:50:09.500Z,28.50
2022-07-25T18:52:12.257Z,28.30
2022-07-25T18:54:16.422Z,28.30
2022-07-25T18:56:19.187Z,28.30
2022-07-25T18:58:21.946Z,28.30
2022-07-25T19:00:24.728Z,28.40
2022-07-25T19:02:27.811Z,28.50
2022-07-25T19:04:30.719Z,28.50
2022-07-25T19:06:33.511Z,28.20
2022-07-25T19:08:36.562Z,28.20
2022-07-25T19:10:40.939Z,28.30
2022-07-25T19:12:43.907Z,28.00
2022-07-25T19:14:46.750Z,28.00
2022-07-25T19:16:50.099Z,27.70
2022-07-25T19:18:52.960Z,27.50
2022-07-25T19:20:55.992Z,27.50
2022-07-25T19:22:58.819Z,27.40
2022-07-25T19:25:05.569Z,27.40
2022-07-25T19:27:10.168Z,27.50
2022-07-25T19:29:12.961Z,27.50
2022-07-25T19:31:15.876Z,27.50
2022-07-25T19:33:18.773Z,27.40
2022-07-25T19:35:26.099Z,27.50
2022-07-25T19:37:29.584Z,27.30
2022-07-25T19:39:32.518Z,27.10
2022-07-25T19:41:35.305Z,27.30
2022-07-25T19:43:39.527Z,27.40
2022-07-25T19:45:42.349Z,27.50
2022-07-25T19:47:45.272Z,27.40
2022-07-25T19:49:48.220Z,27.40
2022-07-25T19:51:51.004Z,27.50
2022-07-25T19:53:54.238Z,27.40
2022-07-25T19:55:57.027Z,27.40
2022-07-25T19:57:59.762Z,27.30
2022-07-25T20:00:04.799Z,27.40
2022-07-25T20:02:07.745Z,27.30
2022-07-25T20:04:11.623Z,27.40
2022-07-25T20:06:14.588Z,27.50
2022-07-25T20:08:18.801Z,27.40
2022-07-25T20:10:21.836Z,27.30
2022-07-25T20:12:24.763Z,27.30
2022-07-25T20:14:27.551Z,27.00
2022-07-25T20:16:31.756Z,26.90
2022-07-25T20:18:34.730Z,26.90
2022-07-25T20:20:38.061Z,26.90
2022-07-25T20:22:41.949Z,26.80
2022-07-25T20:24:45.673Z,26.90
2022-07-25T20:26:48.444Z,26.80
2022-07-25T20:28:51.332Z,26.70
2022-07-25T20:30:55.860Z,26.60
2022-07-25T20:33:00.060Z,26.60
2022-07-25T20:35:08.937Z,26.60
2022-07-25T20:37:11.684Z,26.40
2022-07-25T20:39:16.405Z,26.60
2022-07-25T20:41:19.175Z,26.60
2022-07-25T20:43:22.083Z,26.60
2022-07-25T20:45:25.319Z,26.40
2022-07-25T20:47:28.073Z,26.10
2022-07-25T20:49:32.378Z,26.10
2022-07-25T20:51:36.429Z,26.20
2022-07-25T20:53:39.257Z,26.10
2022-07-25T20:55:42.052Z,25.90
2022-07-25T20:57:50.089Z,25.70
2022-07-25T20:59:53.260Z,25.80
2022-07-25T21:01:56.094Z,25.50
2022-07-25T21:03:58.951Z,25.40
2022-07-25T21:06:03.099Z,25.50
2022-07-25T21:08:06.365Z,25.70
2022-07-25T21:10:10.388Z,25.60
2022-07-25T21:12:13.161Z,25.40
2022-07-25T21:14:15.977Z,25.30
2022-07-25T21:16:19.797Z,25.40
2022-07-25T21:18:22.612Z,25.40
2022-07-25T21:20:25.396Z,25.40
2022-07-25T21:22:31.540Z,25.30
2022-07-25T21:24:34.400Z,25.40
2022-07-25T21:26:39.284Z,25.40
2022-07-25T21:28:43.543Z,25.60
2022-07-25T21:30:46.321Z,25.50
2022-07-25T21:32:49.118Z,25.50
2022-07-25T21:34:52.213Z,25.50
2022-07-25T21:36:54.944Z,25.50
2022-07-25T21:38:59.053Z,25.50
2022-07-25T21:41:01.857Z,25.50
2022-07-25T21:43:04.662Z,25.50
2022-07-25T21:45:09.271Z,25.40
2022-07-25T21:47:16.041Z,25.40
2022-07-25T21:49:41.579Z,25.50
2022-07-25T21:51:45.610Z,25.40
2022-07-25T21:53:48.987Z,25.30
2022-07-25T21:55:53.019Z,25.20
2022-07-25T21:57:55.739Z,25.10
2022-07-25T21:59:58.569Z,24.90
2022-07-25T22:02:01.638Z,24.80
2022-07-25T22:04:05.666Z,24.80
2022-07-25T22:06:10.122Z,25.00
2022-07-25T22:08:12.847Z,25.00
2022-07-25T22:10:17.264Z,24.80
2022-07-25T22:12:21.483Z,24.70
2022-07-25T22:14:24.294Z,24.60
2022-07-25T22:16:27.092Z,24.30
2022-07-25T22:18:30.240Z,24.20
2022-07-25T22:20:33.113Z,24.20
2022-07-25T22:22:35.944Z,24.30
2022-07-25T22:24:41.937Z,24.50
2022-07-25T22:26:48.890Z,24.50
2022-07-25T22:28:53.032Z,24.50
2022-07-25T22:30:57.369Z,24.40
2022-07-25T22:33:00.095Z,24.30
2022-07-25T22:35:02.829Z,24.30
2022-07-25T22:37:07.045Z,24.50
2022-07-25T22:39:11.083Z,24.40
2022-07-25T22:41:14.349Z,24.60
2022-07-25T22:43:17.102Z,24.50
2022-07-25T22:45:23.673Z,24.50
2022-07-25T22:47:26.411Z,24.30
2022-07-25T22:49:29.179Z,24.30
2022-07-25T22:51:32.070Z,24.40
2022-07-25T22:53:35.002Z,24.40
2022-07-25T22:55:37.915Z,24.60
2022-07-25T22:57:40.621Z,24.50
2022-07-25T22:59:43.439Z,24.50
2022-07-25T23:01:47.571Z,24.40
2022-07-25T23:03:50.887Z,24.50
2022-07-25T23:05:53.856Z,24.60
2022-07-25T23:07:56.811Z,24.50
2022-07-25T23:09:59.555Z,24.60
2022-07-25T23:12:02.368Z,24.70
2022-07-25T23:14:05.138Z,24.70
2022-07-25T23:16:10.341Z,24.80
2022-07-25T23:18:14.788Z,24.70
2022-07-25T23:20:19.955Z,24.60
2022-07-25T23:22:24.560Z,24.60
2022-07-25T23:24:27.294Z,24.50
2022-07-25T23:26:30.022Z,24.40
2022-07-25T23:28:32.746Z,24.40
2022-07-25T23:30:40.051Z,24.40
2022-07-25T23:32:42.914Z,24.40
2022-07-25T23:34:46.979Z,24.30
2022-07-25T23:36:49.724Z,24.40
2022-07-25T23:38:52.458Z,24.40
2022-07-25T23:40:55.492Z,24.50
2022-07-25T23:42:58.270Z,24.50
2022-07-25T23:45:01.311Z,24.50
2022-07-25T23:47:04.251Z,24.50
2022-07-25T23:49:11.013Z,24.40
2022-07-25T23:51:15.488Z,24.50
2022-07-25T23:53:18.238Z,24.50
2022-07-25T23:55:21.407Z,24.50
2022-07-25T23:57:26.859Z,24.30
2022-07-25T23:59:29.605Z,24.30
